createdAt,value
2018-07-08T00:00:25.256Z,99470.94
2018-07-08T00:02:55.539Z,99479.18
2018-07-08T00:05:25.335Z,99474.50
2018-07-08T00:07:56.232Z,99485.49
2018-07-08T00:10:26.803Z,99481.66
2018-07-08T00:12:57.265Z,99486.61
2018-07-08T00:15:27.359Z,99486.05
2018-07-08T00:17:57.690Z,99480.26
2018-07-08T00:20:28.209Z,99480.48
2018-07-08T00:22:58.427Z,99479.67
2018-07-08T00:25:28.563Z,99480.26
2018-07-08T00:27:58.939Z,99482.19
2018-07-08T00:30:29.415Z,99467.92
2018-07-08T00:32:59.665Z,99476.44
2018-07-08T00:35:29.742Z,99469.63
2018-07-08T00:38:00.208Z,99477.08
2018-07-08T00:40:30.507Z,99479.34
2018-07-08T00:43:01.248Z,99472.77
2018-07-08T00:45:31.501Z,99478.03
2018-07-08T00:48:01.763Z,99473.94
2018-07-08T00:50:32.682Z,99473.70
2018-07-08T00:53:03.018Z,99475.37
2018-07-08T00:55:33.842Z,99476.48
2018-07-08T00:58:03.830Z,99473.73
2018-07-08T01:00:36.843Z,99473.48
2018-07-08T01:03:08.133Z,99482.86
2018-07-08T01:05:38.012Z,99479.59
2018-07-08T01:08:08.184Z,99471.67
2018-07-08T01:10:38.270Z,99472.52
2018-07-08T01:13:08.366Z,99465.45
2018-07-08T01:15:38.564Z,99469.31
2018-07-08T01:18:08.337Z,99461.39
2018-07-08T01:20:38.787Z,99457.08
2018-07-08T01:23:08.770Z,99458.25
2018-07-08T01:25:49.566Z,99462.66
2018-07-08T01:28:19.795Z,99457.52
2018-07-08T01:30:50.471Z,99461.70
2018-07-08T01:33:20.996Z,99461.50
2018-07-08T01:35:51.203Z,99458.78
2018-07-08T01:38:21.370Z,99456.91
2018-07-08T01:40:51.461Z,99455.89
2018-07-08T01:43:21.728Z,99455.39
2018-07-08T01:45:51.864Z,99459.27
2018-07-08T01:48:24.786Z,99458.80
2018-07-08T01:50:55.830Z,99457.45
2018-07-08T01:53:26.210Z,99450.71
2018-07-08T01:55:57.451Z,99454.83
2018-07-08T01:58:27.570Z,99454.62
2018-07-08T02:00:58.138Z,99456.57
2018-07-08T02:03:28.154Z,99455.25
2018-07-08T02:05:58.327Z,99449.56
2018-07-08T02:08:28.690Z,99449.06
2018-07-08T02:10:58.823Z,99448.53
2018-07-08T02:13:29.399Z,99445.58
2018-07-08T02:15:59.976Z,99448.88
2018-07-08T02:18:30.271Z,99442.02
2018-07-08T02:21:00.498Z,99446.73
2018-07-08T02:23:30.395Z,99445.98
2018-07-08T02:26:01.334Z,99442.47
2018-07-08T02:28:32.076Z,99440.07
2018-07-08T02:31:02.774Z,99444.20
2018-07-08T02:33:32.874Z,99444.00
2018-07-08T02:36:03.875Z,99444.60
2018-07-08T02:38:34.153Z,99445.20
2018-07-08T02:41:04.597Z,99440.83
2018-07-08T02:43:34.867Z,99449.11
2018-07-08T02:46:05.556Z,99443.96
2018-07-08T02:48:35.781Z,99448.12
2018-07-08T02:51:06.103Z,99444.85
2018-07-08T02:53:36.533Z,99444.64
2018-07-08T02:56:07.249Z,99440.31
2018-07-08T02:58:37.400Z,99440.62
2018-07-08T03:01:07.862Z,99440.11
2018-07-08T03:03:37.973Z,99441.82
2018-07-08T03:06:08.195Z,99435.53
2018-07-08T03:08:38.310Z,99434.48
2018-07-08T03:11:09.455Z,99431.52
2018-07-08T03:13:39.256Z,99430.76
2018-07-08T03:16:29.838Z,99429.41
2018-07-08T03:19:00.554Z,99423.16
2018-07-08T03:21:30.639Z,99425.39
2018-07-08T03:24:00.752Z,99428.97
2018-07-08T03:26:31.737Z,99435.00
2018-07-08T03:29:01.919Z,99429.28
2018-07-08T03:31:32.160Z,99431.75
2018-07-08T03:34:02.709Z,99411.60
2018-07-08T03:36:32.958Z,99432.04
2018-07-08T03:39:03.450Z,99430.12
2018-07-08T03:41:33.583Z,99434.77
2018-07-08T03:44:04.148Z,99432.24
2018-07-08T03:46:34.585Z,99434.65
2018-07-08T03:49:04.754Z,99432.62
2018-07-08T03:51:34.814Z,99440.25
2018-07-08T03:54:10.345Z,99441.61
2018-07-08T03:56:40.319Z,99447.59
2018-07-08T03:59:10.317Z,99445.66
2018-07-08T04:01:40.752Z,99445.40
2018-07-08T04:04:10.795Z,99452.52
2018-07-08T04:06:40.957Z,99446.22
2018-07-08T04:09:12.031Z,99447.32
2018-07-08T04:11:42.155Z,99450.38
2018-07-08T04:14:12.354Z,99448.69
2018-07-08T04:16:42.752Z,99449.24
2018-07-08T04:19:13.638Z,99449.00
2018-07-08T04:21:43.544Z,99451.98
2018-07-08T04:24:13.639Z,99453.89
2018-07-08T04:26:43.841Z,99453.34
2018-07-08T04:29:14.504Z,99459.33
2018-07-08T04:31:45.640Z,99458.17
2018-07-08T04:34:15.878Z,99457.06
2018-07-08T04:36:46.330Z,99457.05
2018-07-08T04:39:16.674Z,99454.28
2018-07-08T04:41:47.620Z,99455.05
2018-07-08T04:44:17.919Z,99457.19
2018-07-08T04:46:48.293Z,99455.53
2018-07-08T04:49:18.565Z,99455.48
2018-07-08T04:51:49.029Z,99450.53
2018-07-08T04:54:19.186Z,99453.77
2018-07-08T04:56:49.572Z,99453.72
2018-07-08T04:59:20.175Z,99456.67
2018-07-08T05:01:50.491Z,99459.08
2018-07-08T05:04:20.919Z,99456.81
2018-07-08T05:06:50.986Z,99454.55
2018-07-08T05:09:21.168Z,99454.47
2018-07-08T05:11:51.133Z,99457.92
2018-07-08T05:14:21.423Z,99461.41
2018-07-08T05:16:51.318Z,99459.92
2018-07-08T05:19:21.847Z,99460.40
2018-07-08T05:21:51.800Z,99467.47
2018-07-08T05:24:22.048Z,99464.11
2018-07-08T05:26:52.256Z,99461.57
2018-07-08T05:29:22.530Z,99465.95
2018-07-08T05:31:52.844Z,99463.47
2018-07-08T05:34:23.233Z,99469.45
2018-07-08T05:36:53.768Z,99468.14
2018-07-08T05:39:23.909Z,99474.19
2018-07-08T05:41:54.269Z,99471.18
2018-07-08T05:44:24.658Z,99473.92
2018-07-08T05:46:54.841Z,99472.53
2018-07-08T05:49:25.014Z,99474.92
2018-07-08T05:51:56.104Z,99470.72
2018-07-08T05:54:26.161Z,99469.32
2018-07-08T05:56:56.390Z,99473.12
2018-07-08T05:59:26.800Z,99474.75
2018-07-08T06:01:57.094Z,99472.83
2018-07-08T06:04:27.427Z,99469.76
2018-07-08T06:06:57.911Z,99467.83
2018-07-08T06:09:28.211Z,99472.48
2018-07-08T06:11:58.421Z,99468.56
2018-07-08T06:14:28.721Z,99470.95
2018-07-08T06:16:59.153Z,99468.47
2018-07-08T06:19:29.601Z,99465.11
2018-07-08T06:22:00.168Z,99463.39
2018-07-08T06:24:30.419Z,99467.91
2018-07-08T06:27:00.736Z,99466.05
2018-07-08T06:29:30.803Z,99463.70
2018-07-08T06:32:01.047Z,99467.11
2018-07-08T06:34:31.685Z,99466.66
2018-07-08T06:37:01.893Z,99470.91
2018-07-08T06:39:32.445Z,99468.09
2018-07-08T06:42:02.788Z,99464.09
2018-07-08T06:44:32.734Z,99465.06
2018-07-08T06:47:03.020Z,99468.50
2018-07-08T06:49:33.255Z,99464.27
2018-07-08T06:52:03.956Z,99462.75
2018-07-08T06:54:34.434Z,99455.02
2018-07-08T06:57:04.853Z,99460.78
2018-07-08T06:59:35.077Z,99463.16
2018-07-08T07:02:05.565Z,99464.53
2018-07-08T07:04:35.974Z,99459.63
2018-07-08T07:07:06.496Z,99462.16
2018-07-08T07:09:36.664Z,99463.53
2018-07-08T07:12:07.383Z,99464.64
2018-07-08T07:14:37.586Z,99464.39
2018-07-08T07:17:07.718Z,99456.88
2018-07-08T07:19:38.558Z,99455.95
2018-07-08T07:22:08.772Z,99455.28
2018-07-08T07:24:39.015Z,99452.72
2018-07-08T07:27:09.322Z,99456.48
2018-07-08T07:29:39.664Z,99455.03
2018-07-08T07:32:09.966Z,99453.91
2018-07-08T07:34:40.227Z,99461.84
2018-07-08T07:37:11.088Z,99457.67
2018-07-08T07:39:41.341Z,99458.97
2018-07-08T07:42:11.599Z,99460.79
2018-07-08T07:44:41.888Z,99462.01
2018-07-08T07:47:12.281Z,99457.43
2018-07-08T07:49:42.463Z,99457.23
2018-07-08T07:52:12.758Z,99462.28
2018-07-08T07:54:42.911Z,99462.42
2018-07-08T07:57:13.468Z,99472.54
2018-07-08T07:59:44.237Z,99463.72
2018-07-08T08:02:14.719Z,99468.11
2018-07-08T08:04:45.246Z,99469.97
2018-07-08T08:07:15.330Z,99468.55
2018-07-08T08:09:46.054Z,99469.66
2018-07-08T08:12:16.235Z,99470.53
2018-07-08T08:14:46.459Z,99480.16
2018-07-08T08:17:16.964Z,99479.68
2018-07-08T08:19:47.159Z,99482.43
2018-07-08T08:22:17.322Z,99480.80
2018-07-08T08:24:47.482Z,99487.94
2018-07-08T08:27:17.508Z,99489.69
2018-07-08T08:29:47.983Z,99491.45
2018-07-08T08:32:18.711Z,99489.07
2018-07-08T08:35:23.834Z,99497.14
2018-07-08T08:37:55.225Z,99497.59
2018-07-08T08:40:26.524Z,99492.46
2018-07-08T08:42:56.709Z,99491.95
2018-07-08T08:45:29.313Z,99498.34
2018-07-08T08:47:59.652Z,99498.08
2018-07-08T08:50:30.073Z,99493.99
2018-07-08T08:53:00.401Z,99496.81
2018-07-08T08:55:30.875Z,99502.06
2018-07-08T08:58:01.367Z,99506.30
2018-07-08T09:00:31.600Z,99497.56
2018-07-08T09:03:01.898Z,99493.44
2018-07-08T09:05:32.221Z,99486.03
2018-07-08T09:08:02.476Z,99487.48
2018-07-08T09:10:33.015Z,99490.80
2018-07-08T09:13:03.322Z,99487.23
2018-07-08T09:15:33.548Z,99483.66
2018-07-08T09:18:04.007Z,99478.41
2018-07-08T09:20:34.414Z,99476.41
2018-07-08T09:23:05.766Z,99478.78
2018-07-08T09:25:36.045Z,99485.81
2018-07-08T09:28:06.697Z,99484.63
2018-07-08T09:30:38.384Z,99482.31
2018-07-08T09:33:08.577Z,99476.51
2018-07-08T09:35:38.889Z,99473.76
2018-07-08T09:38:09.230Z,99473.45
2018-07-08T09:40:39.376Z,99473.38
2018-07-08T09:43:09.566Z,99476.02
2018-07-08T09:45:39.718Z,99469.55
2018-07-08T09:48:09.839Z,99476.31
2018-07-08T09:50:40.142Z,99477.86
2018-07-08T09:53:10.444Z,99476.19
2018-07-08T09:55:40.756Z,99476.11
2018-07-08T09:58:11.548Z,99471.04
2018-07-08T10:00:41.907Z,99474.23
2018-07-08T10:03:12.356Z,99468.08
2018-07-08T10:05:44.035Z,99468.74
2018-07-08T10:08:14.118Z,99464.23
2018-07-08T10:10:44.848Z,99461.61
2018-07-08T10:13:15.459Z,99466.65
2018-07-08T10:15:46.238Z,99464.02
2018-07-08T10:18:16.454Z,99465.82
2018-07-08T10:20:47.111Z,99469.56
2018-07-08T10:23:17.609Z,99474.44
2018-07-08T10:25:47.902Z,99469.44
2018-07-08T10:28:20.320Z,99469.18
2018-07-08T10:30:51.243Z,99461.81
2018-07-08T10:33:21.383Z,99457.03
2018-07-08T10:35:58.248Z,99451.78
2018-07-08T10:38:28.572Z,99455.49
2018-07-08T10:40:58.640Z,99445.70
2018-07-08T10:43:28.960Z,99443.69
2018-07-08T10:45:59.205Z,99450.52
2018-07-08T10:48:29.346Z,99448.49
2018-07-08T10:50:59.655Z,99451.89
2018-07-08T10:53:29.920Z,99459.61
2018-07-08T10:56:00.167Z,99465.38
2018-07-08T10:58:30.588Z,99457.58
2018-07-08T11:01:01.917Z,99460.28
2018-07-08T11:03:32.330Z,99453.39
2018-07-08T11:06:02.790Z,99450.85
2018-07-08T11:08:33.198Z,99438.53
2018-07-08T11:11:03.450Z,99444.05
2018-07-08T11:13:33.822Z,99442.76
2018-07-08T11:16:04.156Z,99447.45
2018-07-08T11:18:35.812Z,99445.27
2018-07-08T11:21:06.646Z,99440.05
2018-07-08T11:23:37.174Z,99440.39
2018-07-08T11:26:07.478Z,99433.50
2018-07-08T11:28:38.480Z,99426.36
2018-07-08T11:31:08.874Z,99430.02
2018-07-08T11:33:39.224Z,99428.38
2018-07-08T11:36:09.772Z,99424.91
2018-07-08T11:38:40.107Z,99427.66
2018-07-08T11:41:10.412Z,99422.36
2018-07-08T11:43:40.750Z,99419.55
2018-07-08T11:46:11.299Z,99415.08
2018-07-08T11:48:41.518Z,99419.72
2018-07-08T11:51:11.749Z,99422.64
2018-07-08T11:53:42.036Z,99419.49
2018-07-08T11:56:12.604Z,99417.16
2018-07-08T11:58:43.434Z,99410.98
2018-07-08T12:01:13.534Z,99403.44
2018-07-08T12:03:44.059Z,99402.79
2018-07-08T12:06:14.486Z,99397.69
2018-07-08T12:08:44.695Z,99397.20
2018-07-08T12:11:15.094Z,99401.78
2018-07-08T12:13:45.259Z,99393.00
2018-07-08T12:16:15.782Z,99396.11
2018-07-08T12:18:46.042Z,99396.17
2018-07-08T12:21:16.441Z,99397.62
2018-07-08T12:23:46.996Z,99389.28
2018-07-08T12:26:17.415Z,99393.73
2018-07-08T12:28:47.650Z,99388.61
2018-07-08T12:31:17.956Z,99387.28
2018-07-08T12:33:48.442Z,99380.38
2018-07-08T12:36:18.765Z,99379.48
2018-07-08T12:38:49.041Z,99380.42
2018-07-08T12:41:19.241Z,99377.58
2018-07-08T12:43:49.477Z,99377.34
2018-07-08T12:46:19.656Z,99372.73
2018-07-08T12:48:49.686Z,99370.00
2018-07-08T12:51:19.972Z,99369.98
2018-07-08T12:53:50.305Z,99372.16
2018-07-08T12:56:20.460Z,99364.75
2018-07-08T12:58:50.604Z,99361.56
2018-07-08T13:01:21.357Z,99361.61
2018-07-08T13:03:51.990Z,99361.52
2018-07-08T13:06:22.308Z,99362.11
2018-07-08T13:08:53.434Z,99352.11
2018-07-08T13:11:23.579Z,99346.86
2018-07-08T13:13:53.922Z,99346.17
2018-07-08T13:16:24.074Z,99352.77
2018-07-08T13:18:54.460Z,99359.46
2018-07-08T13:21:24.733Z,99361.78
2018-07-08T13:23:54.959Z,99349.23
2018-07-08T13:26:25.234Z,99347.04
2018-07-08T13:28:55.720Z,99346.34
2018-07-08T13:31:25.955Z,99347.00
2018-07-08T13:33:56.283Z,99357.17
2018-07-08T13:36:26.496Z,99360.51
2018-07-08T13:38:56.823Z,99357.94
2018-07-08T13:41:27.755Z,99358.39
2018-07-08T13:43:57.926Z,99362.66
2018-07-08T13:46:28.175Z,99357.33
2018-07-08T13:48:58.311Z,99361.48
2018-07-08T13:51:28.771Z,99357.00
2018-07-08T13:53:58.940Z,99355.86
2018-07-08T13:56:29.046Z,99358.52
2018-07-08T13:58:59.447Z,99359.34
2018-07-08T14:01:29.579Z,99358.11
2018-07-08T14:04:00.145Z,99362.75
2018-07-08T14:06:30.467Z,99357.70
2018-07-08T14:09:01.237Z,99353.13
2018-07-08T14:11:31.742Z,99349.09
2018-07-08T14:14:01.834Z,99350.61
2018-07-08T14:16:32.063Z,99346.80
2018-07-08T14:19:02.354Z,99339.64
2018-07-08T14:21:32.913Z,99340.92
2018-07-08T14:24:03.149Z,99341.61
2018-07-08T14:26:33.434Z,99343.22
2018-07-08T14:29:03.889Z,99345.06
2018-07-08T14:31:34.243Z,99347.95
2018-07-08T14:34:04.536Z,99345.08
2018-07-08T14:36:34.537Z,99340.69
2018-07-08T14:39:05.874Z,99341.61
2018-07-08T14:41:36.331Z,99349.69
2018-07-08T14:44:06.438Z,99347.38
2018-07-08T14:46:36.735Z,99352.22
2018-07-08T14:49:07.134Z,99349.91
2018-07-08T14:51:37.264Z,99353.58
2018-07-08T14:54:07.675Z,99346.77
2018-07-08T14:56:38.086Z,99345.96
2018-07-08T14:59:08.521Z,99345.52
2018-07-08T15:01:45.004Z,99345.69
2018-07-08T15:04:15.893Z,99337.27
2018-07-08T15:06:46.166Z,99343.61
2018-07-08T15:09:16.674Z,99344.64
2018-07-08T15:11:47.465Z,99349.84
2018-07-08T15:14:17.932Z,99348.79
2018-07-08T15:16:48.113Z,99346.63
2018-07-08T15:19:18.258Z,99347.20
2018-07-08T15:21:48.687Z,99353.19
2018-07-08T15:24:19.210Z,99356.89
2018-07-08T15:26:50.105Z,99350.05
2018-07-08T15:29:20.507Z,99350.62
2018-07-08T15:31:50.950Z,99358.80
2018-07-08T15:34:21.761Z,99351.15
2018-07-08T15:36:52.053Z,99349.63
2018-07-08T15:39:22.325Z,99352.72
2018-07-08T15:41:52.164Z,99357.08
2018-07-08T15:44:22.765Z,99350.96
2018-07-08T15:46:53.182Z,99356.69
2018-07-08T15:49:23.957Z,99354.69
2018-07-08T15:51:54.473Z,99354.45
2018-07-08T15:54:24.495Z,99363.32
2018-07-08T15:56:55.856Z,99355.59
2018-07-08T15:59:26.065Z,99354.78
2018-07-08T16:01:59.654Z,99350.73
2018-07-08T16:04:30.652Z,99350.85
2018-07-08T16:07:01.031Z,99357.77
2018-07-08T16:09:31.538Z,99348.88
2018-07-08T16:12:02.780Z,99344.27
2018-07-08T16:14:33.980Z,99342.88
2018-07-08T16:17:04.475Z,99350.25
2018-07-08T16:19:34.848Z,99342.89
2018-07-08T16:22:05.356Z,99344.52
2018-07-08T16:24:35.600Z,99345.09
2018-07-08T16:27:05.914Z,99335.27
2018-07-08T16:29:36.303Z,99341.30
2018-07-08T16:32:06.645Z,99342.89
2018-07-08T16:34:37.598Z,99340.48
2018-07-08T16:37:08.050Z,99340.57
2018-07-08T16:39:38.980Z,99338.16
2018-07-08T16:42:09.389Z,99350.36
2018-07-08T16:44:39.730Z,99344.02
2018-07-08T16:47:10.545Z,99350.94
2018-07-08T16:49:44.839Z,99344.13
2018-07-08T16:52:16.950Z,99341.69
2018-07-08T16:54:47.871Z,99343.64
2018-07-08T16:57:22.869Z,99344.70
2018-07-08T16:59:53.327Z,99350.23
2018-07-08T17:02:23.763Z,99344.70
2018-07-08T17:04:53.833Z,99349.42
2018-07-08T17:07:23.939Z,99347.71
2018-07-08T17:09:54.281Z,99348.28
2018-07-08T17:12:28.330Z,99349.34
2018-07-08T17:14:58.513Z,99346.33
2018-07-08T17:17:28.908Z,99349.66
2018-07-08T17:20:00.859Z,99349.09
2018-07-08T17:22:30.901Z,99354.14
2018-07-08T17:25:00.931Z,99359.45
2018-07-08T17:27:31.653Z,99354.36
2018-07-08T17:30:02.007Z,99358.27
2018-07-08T17:32:32.341Z,99355.05
2018-07-08T17:35:02.576Z,99356.19
2018-07-08T17:37:32.955Z,99359.52
2018-07-08T17:40:03.180Z,99356.73
2018-07-08T17:42:33.393Z,99372.20
2018-07-08T17:45:04.637Z,99366.67
2018-07-08T17:47:35.522Z,99367.81
2018-07-08T17:50:05.970Z,99369.44
2018-07-08T17:52:36.252Z,99373.91
2018-07-08T17:55:06.590Z,99371.47
2018-07-08T17:57:36.687Z,99377.47
2018-07-08T18:00:07.267Z,99369.00
2018-07-08T18:02:37.556Z,99368.66
2018-07-08T18:05:07.711Z,99368.98
2018-07-08T18:07:37.930Z,99366.32
2018-07-08T18:10:08.971Z,99367.78
2018-07-08T18:12:39.183Z,99375.62
2018-07-08T18:15:10.270Z,99374.91
2018-07-08T18:17:40.564Z,99375.34
2018-07-08T18:20:11.051Z,99381.76
2018-07-08T18:22:41.428Z,99382.44
2018-07-08T18:25:11.782Z,99376.48
2018-07-08T18:27:42.091Z,99378.90
2018-07-08T18:30:12.177Z,99375.96
2018-07-08T18:32:42.343Z,99380.56
2018-07-08T18:35:13.421Z,99383.64
2018-07-08T18:37:44.565Z,99386.16
2018-07-08T18:40:15.576Z,99383.50
2018-07-08T18:42:46.123Z,99385.70
2018-07-08T18:45:16.418Z,99385.56
2018-07-08T18:47:47.208Z,99391.65
2018-07-08T18:50:17.455Z,99389.20
2018-07-08T18:52:47.734Z,99395.65
2018-07-08T18:55:17.973Z,99399.30
2018-07-08T18:57:48.914Z,99397.55
2018-07-08T19:00:19.669Z,99404.28
2018-07-08T19:02:49.881Z,99398.96
2018-07-08T19:05:20.231Z,99404.23
2018-07-08T19:07:50.441Z,99402.14
2018-07-08T19:10:20.748Z,99413.51
2018-07-08T19:12:51.097Z,99411.91
2018-07-08T19:15:21.494Z,99408.75
2018-07-08T19:17:52.072Z,99410.20
2018-07-08T19:20:22.744Z,99413.87
2018-07-08T19:22:52.951Z,99417.52
2018-07-08T19:25:26.597Z,99417.05
2018-07-08T19:27:57.042Z,99424.62
2018-07-08T19:30:27.818Z,99424.47
2018-07-08T19:32:58.273Z,99428.64
2018-07-08T19:35:28.570Z,99430.37
2018-07-08T19:37:59.278Z,99433.20
2018-07-08T19:40:29.462Z,99423.23
2018-07-08T19:43:00.516Z,99431.19
2018-07-08T19:45:31.155Z,99433.14
2018-07-08T19:48:01.450Z,99440.95
2018-07-08T19:50:38.418Z,99440.20
2018-07-08T19:53:09.655Z,99443.62
2018-07-08T19:55:40.008Z,99432.20
2018-07-08T19:58:10.448Z,99455.62
2018-07-08T20:00:40.620Z,99451.58
2018-07-08T20:03:10.890Z,99450.20
2018-07-08T20:05:41.341Z,99451.33
2018-07-08T20:08:11.789Z,99458.02
2018-07-08T20:10:42.689Z,99450.61
2018-07-08T20:13:12.861Z,99454.02
2018-07-08T20:15:43.042Z,99454.44
2018-07-08T20:18:13.414Z,99456.47
2018-07-08T20:20:45.034Z,99455.97
2018-07-08T20:23:15.624Z,99461.83
2018-07-08T20:25:45.782Z,99460.44
2018-07-08T20:28:16.847Z,99465.71
2018-07-08T20:30:47.409Z,99468.00
2018-07-08T20:33:18.408Z,99462.31
2018-07-08T20:35:48.755Z,99468.45
2018-07-08T20:38:19.448Z,99450.16
2018-07-08T20:40:49.709Z,99477.22
2018-07-08T20:43:20.215Z,99480.29
2018-07-08T20:45:50.358Z,99474.77
2018-07-08T20:48:20.545Z,99477.53
2018-07-08T20:50:50.832Z,99470.64
2018-07-08T20:53:20.995Z,99473.98
2018-07-08T20:55:51.110Z,99477.53
2018-07-08T20:58:22.045Z,99472.02
2018-07-08T21:00:52.757Z,99463.73
2018-07-08T21:03:23.888Z,99475.68
2018-07-08T21:05:54.113Z,99478.19
2018-07-08T21:08:24.945Z,99477.96
2018-07-08T21:10:55.039Z,99472.22
2018-07-08T21:13:25.511Z,99478.64
2018-07-08T21:15:55.600Z,99479.03
2018-07-08T21:18:25.916Z,99474.48
2018-07-08T21:20:56.036Z,99477.07
2018-07-08T21:23:27.239Z,99478.78
2018-07-08T21:25:57.930Z,99485.52
2018-07-08T21:28:27.938Z,99479.80
2018-07-08T21:30:58.256Z,99476.39
2018-07-08T21:33:28.388Z,99484.24
2018-07-08T21:35:58.762Z,99479.12
2018-07-08T21:38:29.503Z,99482.05
2018-07-08T21:40:59.735Z,99488.17
2018-07-08T21:43:29.998Z,99483.95
2018-07-08T21:46:00.267Z,99479.95
2018-07-08T21:48:30.585Z,99488.59
2018-07-08T21:51:00.934Z,99490.14
2018-07-08T21:53:31.201Z,99484.42
2018-07-08T21:56:01.805Z,99481.80
2018-07-08T21:58:32.051Z,99476.93
2018-07-08T22:01:10.770Z,99481.92
2018-07-08T22:03:41.506Z,99486.70
2018-07-08T22:06:11.877Z,99488.16
2018-07-08T22:08:42.258Z,99489.02
2018-07-08T22:11:13.343Z,99486.16
2018-07-08T22:13:44.370Z,99490.67
2018-07-08T22:16:15.006Z,99501.98
2018-07-08T22:18:45.087Z,99497.12
2018-07-08T22:21:15.888Z,99492.81
2018-07-08T22:23:48.925Z,99490.69
2018-07-08T22:26:19.474Z,99489.05
2018-07-08T22:28:49.573Z,99487.76
2018-07-08T22:31:19.768Z,99491.06
2018-07-08T22:33:50.331Z,99482.89
2018-07-08T22:36:20.777Z,99486.50
2018-07-08T22:38:51.183Z,99487.65
2018-07-08T22:41:21.627Z,99482.19
2018-07-08T22:43:52.243Z,99479.77
2018-07-08T22:46:22.725Z,99482.00
2018-07-08T22:48:52.879Z,99479.59
2018-07-08T22:51:23.048Z,99482.45
2018-07-08T22:53:53.427Z,99484.47
2018-07-08T22:56:23.796Z,99485.88
2018-07-08T22:58:54.262Z,99491.77
2018-07-08T23:01:35.532Z,99486.86
2018-07-08T23:04:06.288Z,99484.55
2018-07-08T23:06:36.358Z,99484.63
2018-07-08T23:09:07.101Z,99479.98
2018-07-08T23:11:37.490Z,99480.53
2018-07-08T23:14:07.915Z,99483.06
2018-07-08T23:16:38.131Z,99488.05
2018-07-08T23:19:08.159Z,99482.28
2018-07-08T23:21:38.503Z,99483.80
2018-07-08T23:24:08.684Z,99479.71
2018-07-08T23:26:39.269Z,99482.23
2018-07-08T23:29:09.646Z,99483.91
2018-07-08T23:31:40.079Z,99477.10
2018-07-08T23:34:10.399Z,99472.20
2018-07-08T23:36:40.543Z,99469.26
2018-07-08T23:39:10.747Z,99468.21
2018-07-08T23:41:41.188Z,99468.84
2018-07-08T23:44:11.694Z,99474.94
2018-07-08T23:46:41.939Z,99470.32
2018-07-08T23:49:12.060Z,99467.37
2018-07-08T23:51:42.373Z,99475.11
2018-07-08T23:54:13.131Z,99471.05
2018-07-08T23:56:43.315Z,99474.36
2018-07-08T23:59:13.544Z,99468.11
